TAF and METAR

METAR for Statfjord A - Oil Platform

ENSF 020220Z AUTO 19041KT 9999NDV BKN015/// 10/06 Q1010 W///S5
Report created 2. des 03:20
report generated by an automatic observation system. wind 41 knots from S (190°) visibility > 10km broken clouds (~75% cover) at 1500 feet Temperature 10° with dewpoint at 6° (Humidity 76.18%) Pressure 1010 hPa
No TAF available for Statfjord A - Oil Platform
Statfjord A - Oil Platform in Norway at 10m

Latest 5 airports